メキシコシティ の空港の天気 - METARとTAF

メキシコ・シティ国際空港 ( MMMX / MEX ) - メキシコ メキシコシティ
飛行場実況気象(Metar)
観測時間04/21 11:45 CDT (04/21 16:45 UTC)
風向・風速東北東 3m/s
視程10km以上
天気現象
なし
気温24℃
湿度24%
気圧1029hPa
METARMMMX 211645Z 07006KT 7SM SKC 24/02 A3038 NOSIG RMK HZY ISOL CU
過去の天気等 Google飛行場航空写真 Wunderground天気予報

過去48時間のMETAR

飛行場予報(TAF)
発表時間: 4/21 06:24 CDT (4/21 11:24 UTC)
予報対象時間: 21日7時 CDT ~ 22日13時 CDT
風向・風速北北西 3m/s
視程10km以上
なし
21日12時 CDT から
風向・風速南西 5m/s
視程10km以上
全天の4割程度の雲 雲底高度 7620m
21日22時 CDT から
風向・風速西北西 3m/s
視程10km以上
全天の4割程度の雲 雲底高度 7620m
22日11時 CDT から
風向・風速西南西 3m/s
視程10km以上
全天の4割程度の雲 雲底高度 7620m
TAF MMMX 211124Z 2112/2218 33005KT P6SM SKC TX28/2121Z TN13/2112Z
FM211700 23010KT P6SM SCT250
FM220300 30005KT P6SM SCT250
FM221600 24005KT P6SM SCT250